Time;durP1;ratioP1;P1;durP2;ratioP2;P2;SDS_P1;SDS_P2;PMS_P1;PMS_P2;Temp;Humidity;BMP_temperature;BMP_pressure;BME280_temperature;BME280_humidity;BME280_pressure;Samples;Min_cycle;Max_cycle;Signal;HPM_P1;HPM_P2
2022/09/25 00:00:55;;;;;;;9.70;1.77;;;;;;;23.48;34.86;101210.88;4181519;28;20044;-63
2022/09/25 00:02:59;;;;;;;11.02;1.90;;;;;;;23.70;34.42;101236.41;4184581;28;20075;-64
2022/09/25 00:05:01;;;;;;;4.88;1.48;;;;;;;23.63;34.74;101223.84;4191239;28;20041;-63
2022/09/25 00:07:02;;;;;;;11.38;2.03;;;;;;;23.68;35.13;101238.66;4198050;28;20048;-63
2022/09/25 00:09:07;;;;;;;4.45;1.33;;;;;;;23.71;35.08;101237.25;4188054;28;20037;-63
2022/09/25 00:11:20;;;;;;;5.63;1.60;;;;;;;23.68;35.13;101232.22;4181457;28;20045;-63
2022/09/25 00:13:22;;;;;;;9.13;1.60;;;;;;;23.75;35.19;101247.53;4192115;28;20078;-62
2022/09/25 00:15:27;;;;;;;11.95;1.55;;;;;;;23.75;34.99;101243.91;4195742;28;20102;-63
2022/09/25 00:17:28;;;;;;;3.88;1.52;;;;;;;23.74;35.18;101243.09;4184041;28;20098;-63
2022/09/25 00:19:50;;;;;;;7.35;1.65;;;;;;;23.74;35.48;101259.00;4184606;28;20044;-62
2022/09/25 00:21:52;;;;;;;5.97;1.20;;;;;;;23.72;35.49;101256.50;4185898;28;20118;-63
2022/09/25 00:23:53;;;;;;;11.88;1.58;;;;;;;23.59;35.57;101229.19;4197384;28;20098;-63
2022/09/25 00:25:55;;;;;;;5.88;1.67;;;;;;;23.67;35.25;101236.16;4192660;28;20106;-63
2022/09/25 00:27:56;;;;;;;7.47;1.58;;;;;;;23.71;35.47;101240.03;4180848;28;20037;-63
2022/09/25 00:29:59;;;;;;;12.18;1.73;;;;;;;23.70;35.44;101243.97;4184588;28;20037;-63
2022/09/25 00:32:04;;;;;;;3.08;1.58;;;;;;;23.70;35.77;101236.41;4188432;28;20090;-63
2022/09/25 00:34:05;;;;;;;;;;;;;;;23.68;35.44;101237.81;4181753;28;20091;-63
2022/09/25 00:36:09;;;;;;;8.25;1.95;;;;;;;23.51;35.43;101205.53;4186449;28;19971;-63
2022/09/25 00:38:13;;;;;;;5.13;1.30;;;;;;;23.75;35.56;101244.75;4195231;28;20046;-63
2022/09/25 00:40:14;;;;;;;2.87;1.60;;;;;;;23.62;35.42;101223.03;4186874;28;20033;-63
2022/09/25 00:42:20;;;;;;;2.42;1.00;;;;;;;23.62;35.39;101225.81;4193480;28;20089;-63
2022/09/25 00:44:40;;;;;;;8.32;1.67;;;;;;;23.71;35.71;101243.66;4213774;28;20109;-62
2022/09/25 00:46:43;;;;;;;10.80;1.40;;;;;;;23.71;35.72;101238.06;4184223;28;20094;-63
2022/09/25 00:49:13;;;;;;;2.40;1.30;;;;;;;23.67;35.83;101244.53;4187747;28;20041;-62
2022/09/25 00:51:17;;;;;;;5.65;1.50;;;;;;;23.65;35.76;101233.66;4175103;28;20037;-62
2022/09/25 00:53:29;;;;;;;3.97;1.33;;;;;;;23.72;35.75;101245.31;4180996;28;20045;-63
2022/09/25 00:55:33;;;;;;;4.45;1.30;;;;;;;23.73;35.90;101244.22;4180792;28;20376;-62
2022/09/25 00:57:41;;;;;;;5.28;1.42;;;;;;;23.49;35.62;101206.94;4194597;28;20549;-62
2022/09/25 00:59:49;;;;;;;3.15;1.33;;;;;;;23.73;35.64;101243.34;4196988;28;20480;-64
2022/09/25 01:01:51;;;;;;;4.28;1.33;;;;;;;23.62;35.52;101228.63;4195430;28;20048;-64
2022/09/25 01:03:54;;;;;;;5.60;1.23;;;;;;;23.73;35.46;101241.41;4187618;28;20041;-62
2022/09/25 01:05:58;;;;;;;3.60;1.25;;;;;;;23.75;35.71;101253.13;4180733;28;20044;-62
2022/09/25 01:08:06;;;;;;;2.63;1.30;;;;;;;23.74;35.85;101254.25;4180785;28;20049;-63
2022/09/25 01:10:09;;;;;;;3.92;1.10;;;;;;;23.75;35.57;101250.34;4181716;28;20091;-65
2022/09/25 01:12:10;;;;;;;6.20;1.20;;;;;;;23.69;35.39;101240.34;4184226;28;20090;-63
2022/09/25 01:14:16;;;;;;;2.58;1.05;;;;;;;23.72;35.65;101245.31;4196773;28;20040;-65
2022/09/25 01:16:38;;;;;;;4.85;1.38;;;;;;;23.72;35.97;101250.91;4197376;28;20044;-63
2022/09/25 01:19:10;;;;;;;4.00;1.30;;;;;;;23.71;35.76;101254.84;4187674;28;20041;-63
2022/09/25 01:21:26;;;;;;;4.90;1.40;;;;;;;23.72;36.01;101245.31;4181311;28;20550;-64
2022/09/25 01:23:58;;;;;;;3.35;1.30;;;;;;;23.73;35.86;101252.59;4194276;28;20048;-63
2022/09/25 01:26:36;;;;;;;9.07;1.40;;;;;;;23.72;36.16;101238.91;4197184;28;20082;-62
2022/09/25 01:28:49;;;;;;;3.38;1.60;;;;;;;23.73;35.84;101241.41;4184158;28;20118;-63
2022/09/25 01:31:01;;;;;;;4.97;1.40;;;;;;;23.57;35.85;101220.28;4183718;28;20033;-63
2022/09/25 01:33:13;;;;;;;4.00;1.52;;;;;;;23.73;35.76;101241.41;4183390;28;20711;-63
2022/09/25 01:35:39;;;;;;;3.00;1.38;;;;;;;23.52;35.90;101206.38;4183843;28;20038;-63
2022/09/25 01:37:46;;;;;;;4.65;1.88;;;;;;;23.72;35.92;101230.50;4187049;28;20048;-65
2022/09/25 01:40:07;;;;;;;4.93;1.15;;;;;;;23.66;36.17;101235.31;4183434;28;20036;-64
2022/09/25 01:42:28;;;;;;;2.78;1.08;;;;;;;23.72;36.01;101227.72;4185168;28;20045;-65
2022/09/25 01:44:37;;;;;;;2.85;1.30;;;;;;;23.67;36.02;101224.97;4188046;28;20043;-64
2022/09/25 01:46:47;;;;;;;3.88;1.20;;;;;;;23.72;36.01;101234.13;4191028;28;20430;-63
2022/09/25 01:48:59;;;;;;;4.28;1.30;;;;;;;23.74;35.91;101237.50;4200040;28;20479;-64
2022/09/25 01:51:07;;;;;;;1.55;1.00;;;;;;;23.75;35.67;101239.16;4197686;28;20055;-63
2022/09/25 01:53:14;;;;;;;2.15;1.27;;;;;;;23.75;35.72;101236.34;4197921;28;20178;-63
2022/09/25 01:55:25;;;;;;;1.60;1.35;;;;;;;23.76;35.72;101245.56;4186999;28;20048;-63
2022/09/25 01:57:41;;;;;;;3.58;1.10;;;;;;;23.76;36.01;101245.56;4191548;28;20101;-63
2022/09/25 01:59:53;;;;;;;4.57;1.33;;;;;;;23.77;35.95;101252.81;4199591;28;20471;-63
2022/09/25 02:01:57;;;;;;;3.58;1.30;;;;;;;23.77;35.84;101253.66;4197693;28;20040;-63
2022/09/25 02:04:08;;;;;;;1.58;1.10;;;;;;;23.75;36.00;101264.31;4195625;28;20090;-63
2022/09/25 02:06:18;;;;;;;3.60;1.35;;;;;;;23.56;36.10;101229.78;4183218;28;20163;-64
2022/09/25 02:08:25;;;;;;;3.75;1.27;;;;;;;23.75;36.14;101258.72;4182320;28;20052;-63
2022/09/25 02:10:40;;;;;;;2.90;1.30;;;;;;;23.74;35.95;101259.00;4186079;28;20032;-63
2022/09/25 02:12:55;;;;;;;1.92;1.10;;;;;;;23.74;35.84;101257.06;4183225;28;20048;-63
2022/09/25 02:15:19;;;;;;;3.08;1.10;;;;;;;23.76;35.91;101249.19;4187141;28;20094;-63
2022/09/25 02:22:22;;;;;;;1.88;1.00;;;;;;;23.73;36.10;101246.16;4184028;28;20094;-64
2022/09/25 02:24:56;;;;;;;3.92;1.00;;;;;;;23.48;35.91;101199.69;4183045;28;20037;-64
2022/09/25 02:26:57;;;;;;;3.35;1.40;;;;;;;23.77;36.14;101247.22;4182727;28;20431;-63
2022/09/25 02:29:02;;;;;;;2.35;0.95;;;;;;;23.78;36.13;101238.56;4183035;28;20036;-63
2022/09/25 02:31:09;;;;;;;2.28;1.02;;;;;;;23.75;36.26;101238.31;4183232;28;20427;-64
2022/09/25 02:33:10;;;;;;;4.18;1.23;;;;;;;23.74;36.37;101243.09;4192747;28;20029;-63
2022/09/25 02:35:14;;;;;;;1.58;1.20;;;;;;;23.70;36.43;101250.38;4186783;28;20477;-63
2022/09/25 02:37:21;;;;;;;1.90;1.05;;;;;;;23.70;36.22;101258.75;4185901;28;20075;-62
2022/09/25 02:39:27;;;;;;;2.75;1.08;;;;;;;23.71;36.45;101246.44;4201860;28;20545;-65
2022/09/25 02:41:58;;;;;;;5.15;2.05;;;;;;;23.71;36.29;101266.00;4210096;28;20040;-62
2022/09/25 02:44:30;;;;;;;17.40;2.47;;;;;;;23.72;36.44;101245.31;4198995;28;20056;-62
2022/09/25 02:47:11;;;;;;;4.97;1.23;;;;;;;23.69;36.61;101234.75;4208883;28;20044;-62
2022/09/25 02:49:28;;;;;;;4.97;1.60;;;;;;;23.74;36.48;101240.28;4137746;28;20046;-62
2022/09/25 02:52:02;;;;;;;5.07;1.05;;;;;;;23.72;36.73;101234.13;4167865;28;20098;-62
2022/09/25 02:54:23;;;;;;;4.15;1.35;;;;;;;23.69;36.94;101229.16;4194310;28;20045;-62
2022/09/25 02:56:44;;;;;;;2.97;1.00;;;;;;;23.56;36.81;101213.88;4198632;28;20048;-62
2022/09/25 02:58:51;;;;;;;3.20;1.63;;;;;;;23.74;36.72;101237.50;4197561;28;20044;-62
2022/09/25 03:00:55;;;;;;;3.53;1.02;;;;;;;23.71;37.05;101240.84;4198465;28;20048;-62
2022/09/25 03:02:58;;;;;;;2.33;1.15;;;;;;;23.72;36.88;101233.31;4198524;28;20040;-62
2022/09/25 03:05:05;;;;;;;2.75;1.20;;;;;;;23.74;36.89;101231.91;4195459;28;20481;-62
2022/09/25 03:07:07;;;;;;;4.03;1.10;;;;;;;23.70;36.94;101222.44;4182149;28;20041;-63
2022/09/25 03:09:09;;;;;;;2.35;1.13;;;;;;;23.76;37.07;101234.41;4182400;28;20045;-62
2022/09/25 03:11:13;;;;;;;3.63;1.20;;;;;;;23.74;36.89;101226.31;4182222;28;20037;-62
2022/09/25 03:13:22;;;;;;;3.45;1.30;;;;;;;22.93;37.10;101099.34;4183818;28;20095;-62
2022/09/25 03:15:23;;;;;;;1.80;1.23;;;;;;;23.54;36.68;101187.34;4198403;28;20037;-62
2022/09/25 03:17:25;;;;;;;2.95;1.20;;;;;;;23.76;36.96;101223.22;4198670;28;20393;-62
2022/09/25 03:19:28;;;;;;;2.45;1.00;;;;;;;23.76;37.20;101221.25;4198268;28;20044;-62
2022/09/25 03:21:32;;;;;;;5.05;1.63;;;;;;;23.72;36.87;101217.38;4198395;28;20036;-62
2022/09/25 03:23:36;;;;;;;2.80;1.00;;;;;;;23.76;37.36;101224.03;4197689;28;20098;-62
2022/09/25 03:25:43;;;;;;;2.00;1.38;;;;;;;23.63;37.29;101202.34;4198390;28;20281;-62
2022/09/25 03:27:45;;;;;;;2.10;1.02;;;;;;;23.58;37.26;101192.03;4198071;28;20085;-62
2022/09/25 03:29:48;;;;;;;1.58;0.90;;;;;;;23.76;37.27;101210.06;4198100;28;20034;-62
2022/09/25 03:31:50;;;;;;;1.73;1.20;;;;;;;23.72;36.92;101200.59;4198234;28;20052;-62
2022/09/25 03:33:51;;;;;;;2.47;1.23;;;;;;;23.77;37.05;101211.72;4198130;28;20045;-62
2022/09/25 03:36:19;;;;;;;4.65;1.10;;;;;;;23.77;37.05;101208.09;4213081;28;20036;-62
2022/09/25 03:38:20;;;;;;;2.75;1.27;;;;;;;23.79;36.96;101212.28;4211058;28;20636;-61
2022/09/25 03:40:21;;;;;;;3.28;1.20;;;;;;;23.80;37.36;101213.94;4183848;28;20565;-62
2022/09/25 03:42:26;;;;;;;2.50;1.00;;;;;;;23.80;37.35;101216.75;4181113;28;20114;-62
2022/09/25 03:44:30;;;;;;;3.63;1.17;;;;;;;23.64;36.99;101183.63;4181552;28;20045;-62
2022/09/25 03:46:34;;;;;;;1.60;0.90;;;;;;;23.75;37.61;101205.63;4181802;28;20029;-62
2022/09/25 03:48:39;;;;;;;2.58;1.02;;;;;;;23.69;37.33;101201.22;4181770;28;20033;-62
2022/09/25 03:50:40;;;;;;;2.42;1.10;;;;;;;23.78;37.20;101210.63;4181161;28;20095;-62
2022/09/25 03:52:42;;;;;;;3.78;1.17;;;;;;;23.81;37.33;101207.22;4181067;28;20439;-61
2022/09/25 03:54:43;;;;;;;1.58;1.05;;;;;;;23.80;37.42;101213.94;4181235;28;20044;-61
2022/09/25 03:56:44;;;;;;;2.80;1.05;;;;;;;23.78;37.50;101207.84;4181935;28;20480;-61
2022/09/25 03:58:47;;;;;;;3.95;1.27;;;;;;;23.79;37.44;101203.06;4181302;28;20036;-61
2022/09/25 04:00:56;;;;;;;4.07;1.15;;;;;;;23.76;37.40;101196.09;4181771;28;20021;-63
2022/09/25 04:02:58;;;;;;;2.67;1.00;;;;;;;23.76;37.36;101201.69;4181241;28;20440;-63
2022/09/25 04:04:59;;;;;;;2.97;1.00;;;;;;;23.22;37.36;101116.13;4181044;28;20037;-63
2022/09/25 04:07:00;;;;;;;1.50;1.00;;;;;;;23.55;37.36;101155.50;4181194;28;20035;-63
2022/09/25 04:09:02;;;;;;;3.08;0.90;;;;;;;23.76;37.71;101186.88;4181246;28;20041;-63
2022/09/25 04:11:03;;;;;;;4.03;1.23;;;;;;;23.73;37.73;101193.06;4181391;28;20094;-63
2022/09/25 04:13:11;;;;;;;2.38;1.02;;;;;;;23.71;37.49;101187.78;4180517;28;20041;-63
2022/09/25 04:15:13;;;;;;;1.85;1.30;;;;;;;23.71;37.85;101181.34;4197749;28;20097;-63
2022/09/25 04:17:14;;;;;;;1.77;1.00;;;;;;;23.73;38.01;101191.13;4197361;28;20044;-63
2022/09/25 04:19:16;;;;;;;2.03;1.20;;;;;;;23.72;37.75;101200.59;4197775;28;20040;-61
2022/09/25 04:21:17;;;;;;;3.20;1.00;;;;;;;23.72;37.95;101189.44;4197233;28;20105;-61
2022/09/25 04:23:19;;;;;;;1.23;1.10;;;;;;;23.72;38.21;101194.19;4197787;28;20498;-61
2022/09/25 04:25:24;;;;;;;2.55;0.85;;;;;;;23.69;37.92;101190.03;4197378;28;20048;-61
2022/09/25 04:27:28;;;;;;;1.15;1.00;;;;;;;23.43;38.27;101143.88;4197529;28;20074;-61
2022/09/25 04:29:36;;;;;;;1.75;1.20;;;;;;;23.72;38.29;101188.59;4197214;28;20032;-61
2022/09/25 04:31:37;;;;;;;2.33;1.20;;;;;;;23.69;38.23;101187.25;4196976;28;20943;-61
2022/09/25 04:33:47;;;;;;;2.40;0.85;;;;;;;23.71;38.38;101186.94;4197266;28;20472;-61
2022/09/25 04:35:49;;;;;;;3.10;1.27;;;;;;;23.68;38.35;101188.34;4197263;28;20365;-61
2022/09/25 04:37:53;;;;;;;2.17;1.10;;;;;;;23.66;38.19;101187.81;4197093;28;20044;-61
2022/09/25 04:40:01;;;;;;;4.05;1.00;;;;;;;23.47;38.29;101159.75;4196569;28;20044;-61
2022/09/25 04:42:05;;;;;;;2.78;1.05;;;;;;;23.69;38.30;101183.63;4208127;28;20037;-61
2022/09/25 04:44:06;;;;;;;2.53;1.23;;;;;;;23.70;38.63;101186.13;4197338;28;20074;-61
2022/09/25 04:46:09;;;;;;;1.08;0.93;;;;;;;23.69;38.50;101190.03;4176491;28;20273;-62
2022/09/25 04:48:12;;;;;;;1.90;1.30;;;;;;;23.67;38.60;101178.31;4190291;28;20389;-62
2022/09/25 04:50:13;;;;;;;2.55;1.38;;;;;;;23.70;38.41;101174.94;4189691;28;20045;-61
2022/09/25 04:52:16;;;;;;;1.58;1.33;;;;;;;23.71;38.42;101172.97;4191184;28;20044;-63
2022/09/25 04:54:17;;;;;;;2.50;1.10;;;;;;;23.71;38.49;101167.38;4197231;28;20053;-63
2022/09/25 04:56:19;;;;;;;1.40;1.10;;;;;;;23.70;38.39;101163.75;4191379;28;20102;-62
2022/09/25 04:58:23;;;;;;;2.58;1.30;;;;;;;23.69;38.87;101156.50;4195647;28;20040;-62
2022/09/25 05:00:27;;;;;;;1.70;1.10;;;;;;;23.70;38.53;101160.97;4197166;28;20044;-62
2022/09/25 05:02:31;;;;;;;2.10;1.05;;;;;;;23.68;38.54;101149.25;4197936;28;20274;-62
2022/09/25 05:04:33;;;;;;;2.43;1.30;;;;;;;23.71;38.71;101148.66;4189133;28;20044;-62
2022/09/25 05:06:37;;;;;;;2.45;1.00;;;;;;;23.72;38.52;101144.72;4200462;28;20040;-62
2022/09/25 05:08:41;;;;;;;0.95;0.88;;;;;;;23.72;38.62;101149.50;4199301;28;20029;-62
2022/09/25 05:10:43;;;;;;;1.77;1.13;;;;;;;23.71;38.50;101142.25;4184251;28;20032;-62
2022/09/25 05:12:44;;;;;;;1.65;1.23;;;;;;;23.72;38.38;101138.31;4183848;28;20469;-61
2022/09/25 05:14:46;;;;;;;1.98;0.90;;;;;;;23.72;38.83;101139.13;4184113;28;20041;-61
2022/09/25 05:16:48;;;;;;;2.05;0.93;;;;;;;23.69;38.64;101134.16;4183931;28;20044;-62
2022/09/25 05:18:49;;;;;;;1.48;1.08;;;;;;;23.73;38.72;101137.19;4184113;28;20423;-62
2022/09/25 05:20:54;;;;;;;1.73;0.98;;;;;;;23.68;39.03;101126.88;4184426;28;20044;-62
2022/09/25 05:23:02;;;;;;;1.40;1.10;;;;;;;23.71;38.60;101134.69;4184045;28;20029;-62
2022/09/25 05:25:04;;;;;;;1.05;0.98;;;;;;;23.71;38.90;101123.50;4183712;28;20049;-62
2022/09/25 05:27:05;;;;;;;1.48;0.95;;;;;;;23.71;38.66;101129.09;4183906;28;20041;-62
2022/09/25 05:29:09;;;;;;;0.88;0.88;;;;;;;23.47;38.79;101086.31;4184336;28;20095;-61
2022/09/25 05:31:11;;;;;;;0.95;0.85;;;;;;;23.70;39.07;101124.66;4183875;28;20090;-61
2022/09/25 05:33:12;;;;;;;2.45;1.30;;;;;;;23.73;38.78;101118.47;4182239;28;20432;-61
2022/09/25 05:35:18;;;;;;;2.55;0.93;;;;;;;23.73;38.67;101118.47;4183823;28;20099;-62
2022/09/25 05:37:19;;;;;;;1.67;0.93;;;;;;;23.74;39.00;101120.13;4183845;28;20041;-62
2022/09/25 05:39:23;;;;;;;1.00;0.80;;;;;;;23.70;38.78;101119.06;4197621;28;20036;-61
2022/09/25 05:41:28;;;;;;;1.17;1.00;;;;;;;23.62;38.91;101111.28;4200003;28;20041;-61
2022/09/25 05:43:34;;;;;;;1.20;1.10;;;;;;;23.48;38.96;101099.13;4200310;28;20044;-62
2022/09/25 05:45:35;;;;;;;2.50;0.95;;;;;;;23.72;39.30;101139.13;4199782;28;20094;-62
2022/09/25 05:47:37;;;;;;;1.00;0.82;;;;;;;23.71;39.02;101142.25;4199936;28;20048;-62
2022/09/25 05:49:38;;;;;;;3.17;0.95;;;;;;;23.71;39.16;101143.06;4199853;28;20036;-61
2022/09/25 05:51:40;;;;;;;1.85;1.10;;;;;;;23.70;39.07;101130.22;4199819;28;20041;-61
2022/09/25 05:53:41;;;;;;;1.27;0.82;;;;;;;23.68;39.23;101129.69;4199961;28;20041;-61
2022/09/25 05:55:51;;;;;;;1.25;0.93;;;;;;;23.69;38.95;101139.75;4198782;28;20033;-61
2022/09/25 05:57:52;;;;;;;1.00;0.90;;;;;;;23.71;39.11;101148.66;4193918;28;20033;-61
2022/09/25 05:59:53;;;;;;;1.83;1.10;;;;;;;23.71;39.02;101143.06;4183380;28;20045;-61
2022/09/25 06:01:55;;;;;;;1.25;0.90;;;;;;;23.70;39.15;101133.03;4182775;28;20476;-61
2022/09/25 06:03:56;;;;;;;0.90;0.80;;;;;;;23.69;39.37;101134.16;4183110;28;20052;-61
2022/09/25 06:05:58;;;;;;;1.13;0.80;;;;;;;23.69;39.27;101134.16;4182981;28;20099;-62
2022/09/25 06:08:00;;;;;;;1.65;0.80;;;;;;;23.47;39.38;101094.69;4185466;28;20040;-61
2022/09/25 06:10:04;;;;;;;4.40;1.00;;;;;;;23.66;39.55;101125.53;4189744;28;20032;-61
2022/09/25 06:12:06;;;;;;;0.98;0.90;;;;;;;23.68;39.55;101126.06;4198068;28;20041;-61
2022/09/25 06:14:07;;;;;;;1.33;1.15;;;;;;;23.69;39.29;101105.41;4192101;28;20033;-61
2022/09/25 06:16:14;;;;;;;1.90;1.00;;;;;;;23.66;39.46;101108.78;4194374;28;20430;-61
2022/09/25 06:18:15;;;;;;;3.53;1.10;;;;;;;23.66;39.52;101105.97;4199423;28;20058;-61
2022/09/25 06:20:17;;;;;;;1.80;0.90;;;;;;;23.67;39.44;101096.47;4199362;28;20045;-62
2022/09/25 06:22:18;;;;;;;1.42;1.05;;;;;;;23.68;39.38;101092.53;4193372;28;20107;-61
2022/09/25 06:24:19;;;;;;;1.15;0.90;;;;;;;23.68;39.50;101089.72;4190661;28;20373;-61
2022/09/25 06:26:21;;;;;;;1.10;0.95;;;;;;;23.68;39.51;101081.34;4196550;28;20040;-61
2022/09/25 06:28:22;;;;;;;1.75;0.90;;;;;;;23.68;39.45;101076.59;4198616;28;20078;-63
2022/09/25 06:30:33;;;;;;;1.00;0.90;;;;;;;23.70;39.36;101084.69;4195466;28;20036;-61
2022/09/25 06:32:34;;;;;;;1.23;1.13;;;;;;;23.69;39.41;101089.47;4199256;28;20509;-61
2022/09/25 06:34:35;;;;;;;1.20;0.90;;;;;;;23.68;39.32;101093.34;4199227;28;20036;-62
2022/09/25 06:36:37;;;;;;;1.17;0.80;;;;;;;23.65;39.54;101093.97;4199059;28;20041;-62
2022/09/25 06:38:44;;;;;;;2.20;1.42;;;;;;;23.67;39.64;101080.53;4199023;28;20450;-62
2022/09/25 06:40:46;;;;;;;1.15;1.05;;;;;;;23.66;39.27;101073.28;4202050;28;20100;-62
2022/09/25 06:42:49;;;;;;;1.38;1.00;;;;;;;23.65;39.50;101068.81;4201675;28;20480;-62
2022/09/25 06:44:57;;;;;;;4.55;0.98;;;;;;;23.66;39.63;101064.91;4197968;28;20053;-62
2022/09/25 06:46:58;;;;;;;1.10;0.80;;;;;;;23.67;39.22;101062.94;4197875;28;20043;-62
2022/09/25 06:49:00;;;;;;;1.85;1.10;;;;;;;23.66;39.46;101061.28;4193315;28;20385;-62
2022/09/25 06:51:01;;;;;;;0.80;0.70;;;;;;;23.58;39.40;101051.53;4197356;28;20055;-62
2022/09/25 06:53:05;;;;;;;1.58;1.35;;;;;;;23.67;39.65;101062.94;4196156;28;20118;-62
2022/09/25 06:55:06;;;;;;;2.42;1.20;;;;;;;23.68;39.50;101061.78;4182673;28;20431;-62
2022/09/25 06:57:11;;;;;;;1.60;1.05;;;;;;;23.67;39.51;101055.38;4184787;28;20485;-62
2022/09/25 06:59:13;;;;;;;2.33;1.20;;;;;;;23.68;39.57;101048.66;4189056;28;20086;-62
2022/09/25 07:01:14;;;;;;;3.00;1.35;;;;;;;23.51;39.42;101025.94;4188868;28;20102;-62
2022/09/25 07:05:35;;;;;;;0.90;0.80;;;;;;;23.68;39.38;101053.41;4182695;28;20107;-62
2022/09/25 07:07:37;;;;;;;2.17;1.27;;;;;;;23.66;39.29;101053.72;4184129;28;20087;-62
2022/09/25 07:09:38;;;;;;;1.10;0.90;;;;;;;23.66;39.39;101050.94;4198561;28;20094;-62
2022/09/25 07:11:42;;;;;;;3.17;1.10;;;;;;;23.63;39.50;101034.72;4196764;28;20090;-62
2022/09/25 07:13:44;;;;;;;1.50;0.98;;;;;;;23.67;39.77;101029.41;4196670;28;20098;-62
2022/09/25 07:15:56;;;;;;;3.42;1.10;;;;;;;23.64;39.45;101025.25;4181795;28;20025;-62
2022/09/25 07:17:58;;;;;;;1.15;0.95;;;;;;;23.66;39.61;101028.56;4197303;28;20040;-62
2022/09/25 07:19:59;;;;;;;2.05;0.98;;;;;;;23.65;39.37;101026.91;4198683;28;20442;-62
2022/09/25 07:22:11;;;;;;;1.52;0.88;;;;;;;23.64;39.82;101016.88;4196578;28;20048;-62
2022/09/25 07:24:13;;;;;;;1.05;0.95;;;;;;;23.66;39.69;101011.00;4195886;28;20472;-62
2022/09/25 07:26:26;;;;;;;2.58;0.95;;;;;;;23.61;39.32;101006.25;4197361;28;20048;-62
2022/09/25 07:28:27;;;;;;;1.55;1.00;;;;;;;23.66;39.51;101011.00;4196903;28;20476;-63
2022/09/25 07:30:28;;;;;;;1.95;0.90;;;;;;;23.62;39.78;101010.72;4185860;28;20033;-62
2022/09/25 07:32:30;;;;;;;1.30;0.90;;;;;;;23.66;39.70;101009.03;4183067;28;20999;-62
2022/09/25 07:34:34;;;;;;;1.15;1.00;;;;;;;23.65;39.57;101010.16;4196828;28;20106;-63
2022/09/25 07:36:40;;;;;;;1.25;1.10;;;;;;;23.64;39.50;101007.59;4187742;28;20550;-63
2022/09/25 07:38:41;;;;;;;1.75;1.00;;;;;;;23.64;39.67;101014.09;4186031;28;20041;-62
2022/09/25 07:40:45;;;;;;;2.10;1.00;;;;;;;23.64;39.79;101014.09;4181877;28;20106;-62
2022/09/25 07:42:46;;;;;;;1.57;0.87;;;;;;;23.63;39.58;101017.13;4197010;28;20048;-63
2022/09/25 07:44:48;;;;;;;2.47;1.00;;;;;;;23.62;40.02;101021.06;4188378;28;20044;-62
2022/09/25 07:46:49;;;;;;;2.05;0.85;;;;;;;23.62;40.04;101026.66;4192893;28;20537;-63
2022/09/25 07:48:53;;;;;;;1.40;1.10;;;;;;;23.42;39.78;100989.44;4191622;28;20036;-63
2022/09/25 07:51:02;;;;;;;1.40;0.88;;;;;;;23.59;39.80;101023.34;4191127;28;20090;-62
2022/09/25 07:53:04;;;;;;;1.40;1.02;;;;;;;23.62;39.86;101026.66;4197895;28;20086;-62
2022/09/25 07:55:06;;;;;;;1.75;0.95;;;;;;;23.61;40.01;101045.38;4196346;28;20094;-62
2022/09/25 07:57:13;;;;;;;1.40;0.80;;;;;;;23.47;39.74;101031.28;4196774;28;20454;-62
2022/09/25 07:59:15;;;;;;;1.00;0.85;;;;;;;23.57;39.99;101044.28;4197784;28;20040;-63
2022/09/25 08:01:25;;;;;;;1.10;1.00;;;;;;;23.59;39.99;101042.03;4197695;28;20041;-62
2022/09/25 08:03:30;;;;;;;1.77;0.95;;;;;;;23.61;40.26;101039.78;4198035;28;20036;-62
2022/09/25 08:05:34;;;;;;;2.58;1.20;;;;;;;23.52;40.07;101019.22;4198110;28;20257;-62
2022/09/25 08:07:35;;;;;;;1.35;0.95;;;;;;;23.61;39.87;101034.19;4187129;28;20032;-62
2022/09/25 08:09:36;;;;;;;1.20;1.00;;;;;;;23.62;40.23;101026.66;4186045;28;20045;-63
2022/09/25 08:11:38;;;;;;;2.00;1.00;;;;;;;23.42;40.00;100995.03;4189893;28;20048;-62
2022/09/25 08:13:40;;;;;;;1.08;0.98;;;;;;;23.63;40.40;101023.53;4192812;28;20103;-62
2022/09/25 08:15:42;;;;;;;2.55;1.00;;;;;;;23.63;40.26;101017.97;4181298;28;20134;-63
2022/09/25 08:17:43;;;;;;;1.02;0.93;;;;;;;23.52;40.09;100994.09;4194469;28;20090;-62
2022/09/25 08:19:45;;;;;;;1.77;1.10;;;;;;;23.65;40.28;101001.78;4186111;28;20044;-62
2022/09/25 08:21:46;;;;;;;2.70;1.00;;;;;;;23.66;40.10;100999.81;4192954;28;20106;-63
2022/09/25 08:23:50;;;;;;;1.25;0.93;;;;;;;23.66;40.25;100999.81;4185596;28;20045;-63
2022/09/25 08:25:51;;;;;;;3.10;1.10;;;;;;;23.61;40.14;100985.88;4192063;28;20040;-62
2022/09/25 08:27:52;;;;;;;1.70;0.90;;;;;;;23.39;40.39;100950.09;4196233;28;20056;-62
2022/09/25 08:29:54;;;;;;;1.35;1.05;;;;;;;23.66;40.35;101002.59;4194257;28;20036;-62
2022/09/25 08:31:58;;;;;;;2.03;1.00;;;;;;;23.56;40.33;100995.97;4185654;28;20041;-62
2022/09/25 08:34:00;;;;;;;2.28;0.82;;;;;;;23.66;40.15;101011.81;4194851;28;20438;-62
2022/09/25 08:36:03;;;;;;;1.30;1.10;;;;;;;23.61;40.63;100975.53;4194861;28;20074;-62
2022/09/25 08:38:05;;;;;;;2.20;1.05;;;;;;;23.64;40.33;100980.56;4181338;28;20045;-62
2022/09/25 08:40:17;;;;;;;1.50;0.85;;;;;;;23.61;40.64;100975.53;4184192;28;20539;-63
2022/09/25 08:42:30;;;;;;;2.33;0.80;;;;;;;23.65;40.65;100971.03;4191901;28;20102;-63
2022/09/25 08:49:00;;;;;;;1.67;0.93;;;;;;;23.63;40.69;100967.66;4197811;28;20020;-62
2022/09/25 08:50:08;;;;;;;1.38;1.02;;;;;;;23.66;40.63;100974.66;4182211;28;20169;-63
2022/09/25 08:52:15;;;;;;;1.58;1.10;;;;;;;23.65;40.93;100971.03;4179711;28;20048;-62
2022/09/25 08:54:28;;;;;;;0.80;0.70;;;;;;;23.64;40.88;100968.50;4180959;28;20037;-63
2022/09/25 08:56:31;;;;;;;2.00;1.10;;;;;;;23.53;40.98;100946.28;4180639;28;20099;-63
2022/09/25 08:58:41;;;;;;;2.33;0.93;;;;;;;23.66;40.81;100963.50;4192287;28;20407;-63
2022/09/25 09:00:47;;;;;;;1.45;1.00;;;;;;;23.52;40.97;100943.81;4197180;28;20098;-63
2022/09/25 09:02:57;;;;;;;3.72;1.77;;;;;;;23.62;41.17;100965.19;4196059;28;20105;-62
2022/09/25 09:05:00;;;;;;;1.50;0.93;;;;;;;23.63;41.13;100978.03;4197182;28;20040;-62
2022/09/25 09:07:09;;;;;;;1.08;0.90;;;;;;;23.62;41.34;100971.59;4196112;28;20094;-63
2022/09/25 09:09:46;;;;;;;1.88;1.00;;;;;;;23.60;41.43;100962.69;4197182;28;20044;-63
2022/09/25 09:12:22;;;;;;;1.13;0.85;;;;;;;23.63;41.55;100953.69;4196794;28;20036;-63
2022/09/25 09:14:29;;;;;;;2.40;1.10;;;;;;;23.63;41.53;100953.69;4144529;28;20563;-62
2022/09/25 09:17:16;;;;;;;1.75;1.15;;;;;;;23.62;41.35;100951.22;4190654;28;20090;-62
2022/09/25 09:19:17;;;;;;;;;;;;;;;23.63;41.68;100938.91;4189660;28;20094;-63
2022/09/25 09:21:33;;;;;;;1.25;0.90;;;;;;;23.69;41.11;100932.19;4196946;28;19938;-62
2022/09/25 09:24:02;;;;;;;1.90;1.00;;;;;;;23.68;41.34;100925.72;4196984;28;20044;-62
2022/09/25 09:26:20;;;;;;;0.95;0.88;;;;;;;23.66;41.33;100933.59;4188992;28;20040;-62
2022/09/25 09:28:39;;;;;;;3.63;1.20;;;;;;;23.63;41.75;100936.13;4197298;28;20044;-62
2022/09/25 09:30:58;;;;;;;3.85;1.15;;;;;;;23.63;41.64;100927.75;4192334;28;20041;-62
2022/09/25 09:33:02;;;;;;;1.70;1.20;;;;;;;23.52;41.61;100896.31;4179915;28;20103;-62
2022/09/25 09:35:16;;;;;;;1.92;1.25;;;;;;;23.55;41.68;100898.53;4192137;28;20086;-62
2022/09/25 09:37:39;;;;;;;1.38;1.10;;;;;;;23.59;41.73;100905.16;4183120;28;20053;-63
2022/09/25 09:40:17;;;;;;;1.92;0.95;;;;;;;23.59;41.82;100905.16;4195223;28;20484;-62
2022/09/25 09:43:02;;;;;;;1.60;1.10;;;;;;;23.58;41.70;100903.50;4182574;28;20045;-62
2022/09/25 09:45:31;;;;;;;1.13;1.02;;;;;;;23.61;41.89;100894.53;4118127;28;20047;-62
2022/09/25 09:47:58;;;;;;;1.10;1.00;;;;;;;23.63;41.72;100897.00;4184398;28;20048;-62
2022/09/25 09:50:25;;;;;;;1.25;1.02;;;;;;;23.61;41.83;100902.91;4188101;28;20049;-62
2022/09/25 09:52:39;;;;;;;2.42;1.23;;;;;;;23.51;41.95;100887.13;4195200;28;20472;-62
2022/09/25 09:55:03;;;;;;;3.60;1.10;;;;;;;23.58;41.95;100909.06;4192965;28;20044;-63
2022/09/25 09:57:17;;;;;;;1.67;1.00;;;;;;;23.61;42.26;100907.66;4199966;28;20044;-62
2022/09/25 09:59:28;;;;;;;2.15;1.20;;;;;;;23.40;41.85;100873.56;4184454;28;20075;-63
2022/09/25 10:01:34;;;;;;;2.25;0.90;;;;;;;23.62;41.79;100907.34;4183160;28;20114;-62